Time;durP1;ratioP1;P1;durP2;ratioP2;P2;SDS_P1;SDS_P2;PMS_P1;PMS_P2;Temp;Humidity;BMP_temperature;BMP_pressure;BME280_temperature;BME280_humidity;BME280_pressure;Samples;Min_cycle;Max_cycle;Signal;HPM_P1;HPM_P2
2023/08/31 00:01:18;;;;;;;1.20;0.90;;;;;;;15.02;100.00;97147.75;1225356;75;2919359;-66
2023/08/31 00:03:50;;;;;;;1.05;0.85;;;;;;;14.96;100.00;97153.34;1225861;75;2917747;-67
2023/08/31 00:06:23;;;;;;;0.95;0.80;;;;;;;14.95;100.00;97151.09;1225792;75;2920628;-68
2023/08/31 00:08:56;;;;;;;1.10;0.70;;;;;;;15.03;100.00;97152.00;1225991;75;2917497;-66
2023/08/31 00:11:28;;;;;;;1.55;0.80;;;;;;;15.02;100.00;97156.03;1225902;75;2920871;-68
2023/08/31 00:14:01;;;;;;;1.15;0.60;;;;;;;15.01;100.00;97154.50;1225574;75;2920324;-68
2023/08/31 00:16:36;;;;;;;0.90;0.70;;;;;;;15.00;100.00;97150.28;1225553;75;2916760;-71
2023/08/31 00:19:09;;;;;;;0.45;0.45;;;;;;;15.05;100.00;97147.44;1225160;75;2918253;-66
2023/08/31 00:21:42;;;;;;;1.20;0.50;;;;;;;15.06;100.00;97143.44;1225783;75;2923890;-67
2023/08/31 00:24:14;;;;;;;1.25;0.60;;;;;;;15.00;100.00;97137.25;1225748;75;2921886;-68
2023/08/31 00:26:47;;;;;;;0.45;0.45;;;;;;;14.98;100.00;97136.25;1225403;75;2921474;-65
2023/08/31 00:29:19;;;;;;;0.60;0.60;;;;;;;15.00;100.00;97139.25;1224765;75;2923026;-68
2023/08/31 00:31:55;;;;;;;2.75;0.60;;;;;;;15.13;100.00;97137.34;1225366;75;2914723;-66
2023/08/31 00:34:27;;;;;;;0.65;0.55;;;;;;;15.24;100.00;97150.25;1226055;75;2917608;-67
2023/08/31 00:37:00;;;;;;;2.35;0.60;;;;;;;15.09;100.00;97147.91;1225609;75;2921782;-66
2023/08/31 00:39:34;;;;;;;2.60;0.50;;;;;;;14.96;100.00;97147.06;1225211;75;2922892;-69
2023/08/31 00:42:07;;;;;;;3.20;0.90;;;;;;;14.96;100.00;97147.81;1226058;75;2917870;-67
2023/08/31 00:44:40;;;;;;;1.25;0.60;;;;;;;15.00;100.00;97148.25;1225684;75;2928671;-66
2023/08/31 00:47:15;;;;;;;1.00;0.50;;;;;;;15.08;100.00;97140.16;1225682;75;2918976;-66
2023/08/31 00:49:48;;;;;;;0.95;0.40;;;;;;;15.29;100.00;97152.19;1225974;75;2917963;-68
2023/08/31 00:52:21;;;;;;;1.25;0.60;;;;;;;15.12;100.00;97154.41;1225101;67;2921035;-67
2023/08/31 00:54:55;;;;;;;1.65;0.60;;;;;;;15.36;100.00;97155.63;1225300;75;2919034;-67
2023/08/31 00:57:30;;;;;;;0.45;0.40;;;;;;;15.21;100.00;97158.81;1225358;75;2921906;-68
2023/08/31 01:00:03;;;;;;;1.90;0.90;;;;;;;15.16;100.00;97148.59;1224487;75;3030792;-67
2023/08/31 01:02:54;;;;;;;1.00;0.50;;;;;;;15.36;100.00;97145.34;1225895;75;2921680;-68
2023/08/31 01:05:39;;;;;;;0.50;0.45;;;;;;;15.40;100.00;97153.34;1225111;75;2917634;-67
2023/08/31 01:08:25;;;;;;;1.10;0.75;;;;;;;15.11;100.00;97155.69;1225405;75;2923842;-70
2023/08/31 01:11:12;;;;;;;0.85;0.70;;;;;;;15.22;100.00;97155.53;1221926;75;3016513;-65
2023/08/31 01:13:51;;;;;;;0.90;0.60;;;;;;;15.04;100.00;97159.00;1225999;75;2910220;-67
2023/08/31 01:16:27;;;;;;;0.90;0.80;;;;;;;15.32;100.00;97158.66;1225871;75;2917532;-68
2023/08/31 01:19:04;;;;;;;0.50;0.50;;;;;;;15.33;100.00;97160.91;1225845;75;2921034;-66
2023/08/31 01:21:42;;;;;;;0.65;0.55;;;;;;;15.23;100.00;97164.56;1225907;75;2921066;-65
2023/08/31 01:24:17;;;;;;;0.45;0.45;;;;;;;15.38;100.00;97172.41;1225562;75;2914046;-64
2023/08/31 01:26:50;;;;;;;1.10;0.70;;;;;;;15.26;100.00;97166.28;1225939;75;2919844;-67
2023/08/31 01:29:23;;;;;;;1.15;0.70;;;;;;;15.16;100.00;97171.41;1226013;75;2914696;-67
2023/08/31 01:31:55;;;;;;;0.75;0.70;;;;;;;15.06;100.00;97165.50;1226034;75;2916830;-70
2023/08/31 01:34:28;;;;;;;1.45;1.20;;;;;;;14.95;100.00;97170.38;1225681;75;2917065;-68
2023/08/31 01:37:06;;;;;;;2.75;1.50;;;;;;;14.88;100.00;97177.94;1225337;75;2923482;-68
2023/08/31 01:39:50;;;;;;;2.20;1.45;;;;;;;14.78;100.00;97168.53;1225474;75;2919073;-64
2023/08/31 01:42:25;;;;;;;1.80;1.30;;;;;;;14.77;100.00;97169.81;1226083;75;2917459;-67
2023/08/31 01:44:59;;;;;;;2.25;1.40;;;;;;;14.74;100.00;97183.84;1225486;75;2917145;-66
2023/08/31 01:47:32;;;;;;;1.80;1.40;;;;;;;14.69;100.00;97174.38;1225355;75;2922302;-65
2023/08/31 01:50:04;;;;;;;2.35;1.60;;;;;;;14.64;100.00;97173.16;1225572;75;2924928;-68
2023/08/31 01:52:37;;;;;;;1.95;1.50;;;;;;;14.65;100.00;97174.69;1225231;75;2928364;-67
2023/08/31 01:55:15;;;;;;;3.10;1.80;;;;;;;14.63;100.00;97174.44;1225691;75;2917187;-67
2023/08/31 01:57:48;;;;;;;1.70;1.60;;;;;;;14.67;100.00;97182.41;1225862;75;2919160;-68
2023/08/31 02:00:23;;;;;;;1.75;1.20;;;;;;;14.82;100.00;97182.03;1225842;75;2920716;-67
2023/08/31 02:02:55;;;;;;;1.45;1.35;;;;;;;14.82;100.00;97182.78;1225125;75;2922710;-65
2023/08/31 02:05:28;;;;;;;1.40;1.00;;;;;;;15.01;100.00;97182.84;1225645;75;2916843;-66
2023/08/31 02:08:00;;;;;;;1.10;1.00;;;;;;;15.04;100.00;97183.81;1225229;75;2924167;-67
2023/08/31 02:10:36;;;;;;;1.05;0.90;;;;;;;14.97;100.00;97185.13;1225560;75;2913931;-69
2023/08/31 02:13:09;;;;;;;1.10;0.70;;;;;;;14.99;100.00;97181.88;1224856;75;2917127;-67
2023/08/31 02:15:42;;;;;;;1.00;0.90;;;;;;;14.93;100.00;97179.16;1225145;75;2924958;-67
2023/08/31 02:18:14;;;;;;;0.90;0.90;;;;;;;14.99;100.00;97184.63;1225074;75;2915820;-66
2023/08/31 02:20:47;;;;;;;0.80;0.80;;;;;;;14.93;100.00;97189.44;1225329;75;2930544;-67
2023/08/31 02:23:19;;;;;;;0.60;0.60;;;;;;;15.02;100.00;97183.59;1224883;75;2916641;-65
2023/08/31 02:25:55;;;;;;;1.35;0.70;;;;;;;14.95;100.00;97186.91;1225647;75;2918638;-66
2023/08/31 02:28:27;;;;;;;1.30;1.00;;;;;;;14.74;100.00;97198.38;1225504;75;2916087;-67
2023/08/31 02:31:05;;;;;;;2.95;1.50;;;;;;;14.64;100.00;97197.97;1225191;75;2915886;-65
2023/08/31 02:33:38;;;;;;;2.40;1.40;;;;;;;14.49;100.00;97198.31;1225580;75;2929499;-67
2023/08/31 02:36:11;;;;;;;2.05;1.70;;;;;;;14.65;100.00;97193.22;1225099;75;2916199;-67
2023/08/31 02:38:43;;;;;;;1.20;1.10;;;;;;;14.67;100.00;97193.44;1225995;75;2870133;-67
2023/08/31 02:41:19;;;;;;;1.40;1.30;;;;;;;14.59;100.00;97207.03;1224060;75;2913348;-66
2023/08/31 02:43:53;;;;;;;1.45;1.20;;;;;;;14.58;100.00;97205.53;1225413;75;2923839;-69
2023/08/31 02:46:26;;;;;;;4.00;1.80;;;;;;;14.62;100.00;97210.75;1224730;75;2922012;-66
2023/08/31 02:48:59;;;;;;;1.75;1.40;;;;;;;14.49;100.00;97214.09;1224363;75;2916482;-67
2023/08/31 02:51:31;;;;;;;3.05;1.60;;;;;;;14.55;100.00;97212.09;1225005;75;2920166;-68
2023/08/31 02:54:04;;;;;;;1.70;1.60;;;;;;;14.50;100.00;97204.56;1223719;75;2916959;-70
2023/08/31 02:56:39;;;;;;;2.05;1.60;;;;;;;14.46;100.00;97218.63;1225004;75;2915513;-67
2023/08/31 02:59:12;;;;;;;1.95;1.70;;;;;;;14.45;100.00;97206.09;1224790;75;2916892;-68
2023/08/31 03:01:46;;;;;;;2.65;1.55;;;;;;;14.42;100.00;97218.16;1224415;75;2918406;-66
2023/08/31 03:04:18;;;;;;;1.60;1.35;;;;;;;14.53;100.00;97213.81;1225199;75;2917305;-67
2023/08/31 03:06:51;;;;;;;1.35;1.05;;;;;;;14.78;100.00;97215.38;1225091;75;2922666;-70
2023/08/31 03:09:24;;;;;;;1.30;1.20;;;;;;;14.75;100.00;97210.91;1224295;75;2922932;-67
2023/08/31 03:11:59;;;;;;;1.95;1.00;;;;;;;14.65;100.00;97218.75;1225497;75;2914939;-69
2023/08/31 03:14:31;;;;;;;1.55;1.05;;;;;;;14.86;100.00;97213.56;1225197;75;2920730;-66
2023/08/31 03:17:04;;;;;;;1.25;0.90;;;;;;;14.66;100.00;97202.97;1225286;75;2914695;-66
2023/08/31 03:19:36;;;;;;;1.20;1.10;;;;;;;14.54;100.00;97215.34;1225244;75;2920634;-66
2023/08/31 03:22:09;;;;;;;3.05;1.10;;;;;;;14.59;100.00;97214.56;1225416;75;2917384;-65
2023/08/31 03:24:42;;;;;;;1.40;1.30;;;;;;;14.51;100.00;97227.38;1224999;75;2922566;-69
2023/08/31 03:27:19;;;;;;;1.65;1.50;;;;;;;14.62;100.00;97219.03;1224160;75;2921005;-67
2023/08/31 03:29:51;;;;;;;1.85;1.35;;;;;;;14.68;100.00;97219.75;1225089;75;2922604;-68
2023/08/31 03:32:24;;;;;;;1.20;1.10;;;;;;;14.68;100.00;97225.25;1224609;75;2914748;-66
2023/08/31 03:34:56;;;;;;;1.60;1.00;;;;;;;14.62;100.00;97225.31;1225201;75;2920093;-65
2023/08/31 03:37:29;;;;;;;1.00;0.85;;;;;;;14.82;100.00;97232.38;1224790;75;2921202;-67
2023/08/31 03:40:04;;;;;;;1.15;0.90;;;;;;;14.78;100.00;97237.44;1224810;75;2924902;-67
2023/08/31 03:42:39;;;;;;;3.00;0.70;;;;;;;14.81;100.00;97236.38;1225511;75;2924630;-65
2023/08/31 03:45:12;;;;;;;0.80;0.80;;;;;;;14.75;100.00;97232.94;1225218;75;2919196;-65
2023/08/31 03:47:45;;;;;;;0.75;0.75;;;;;;;14.72;100.00;97247.75;1224900;75;2914374;-65
2023/08/31 03:50:21;;;;;;;1.95;1.10;;;;;;;14.66;100.00;97244.28;1225116;75;2924194;-66
2023/08/31 03:52:53;;;;;;;1.30;1.20;;;;;;;14.67;100.00;97243.03;1224743;75;2926330;-67
2023/08/31 03:55:26;;;;;;;1.10;1.00;;;;;;;14.77;100.00;97240.69;1224743;75;2916251;-66
2023/08/31 03:58:02;;;;;;;1.05;0.95;;;;;;;14.70;100.00;97239.25;1224363;75;2920080;-69
2023/08/31 04:00:34;;;;;;;1.85;1.20;;;;;;;14.52;100.00;97253.63;1224500;75;2918852;-65
2023/08/31 04:03:08;;;;;;;1.70;1.30;;;;;;;14.34;100.00;97244.75;1224552;75;2917843;-65
2023/08/31 04:05:40;;;;;;;1.20;1.10;;;;;;;14.58;100.00;97249.63;1224524;75;2920071;-66
2023/08/31 04:08:13;;;;;;;1.20;1.10;;;;;;;14.72;100.00;97253.28;1224265;75;2921207;-68
2023/08/31 04:10:46;;;;;;;1.20;0.85;;;;;;;14.78;100.00;97251.19;1224689;75;2922006;-65
2023/08/31 04:13:21;;;;;;;1.20;1.00;;;;;;;14.82;100.00;97257.19;1223546;75;2923913;-67
2023/08/31 04:15:55;;;;;;;0.80;0.80;;;;;;;14.84;100.00;97249.16;1225087;75;2918970;-67
2023/08/31 04:18:28;;;;;;;1.05;0.80;;;;;;;14.61;100.00;97256.09;1224206;75;2921593;-66
2023/08/31 04:21:03;;;;;;;1.25;0.85;;;;;;;14.52;100.00;97259.88;1223396;75;2924988;-67
2023/08/31 04:23:36;;;;;;;1.45;1.30;;;;;;;14.31;100.00;97256.03;1224098;75;2929823;-68
2023/08/31 04:26:14;;;;;;;1.85;1.40;;;;;;;14.42;100.00;97251.19;1224981;75;2921450;-66
2023/08/31 04:28:49;;;;;;;1.85;1.15;;;;;;;14.63;100.00;97257.09;1226001;75;2917450;-67
2023/08/31 04:31:22;;;;;;;1.70;1.10;;;;;;;14.70;100.00;97253.78;1225357;75;2925653;-66
2023/08/31 04:33:56;;;;;;;0.75;0.75;;;;;;;14.75;100.00;97251.50;1224914;75;2917968;-66
2023/08/31 04:36:28;;;;;;;0.95;0.90;;;;;;;14.73;100.00;97265.78;1225106;75;2924667;-69
2023/08/31 04:39:01;;;;;;;0.60;0.60;;;;;;;14.75;100.00;97268.03;1225123;75;2924283;-65
2023/08/31 04:41:35;;;;;;;0.80;0.80;;;;;;;14.82;100.00;97275.75;1224711;75;2921540;-68
2023/08/31 04:44:10;;;;;;;0.55;0.55;;;;;;;14.82;100.00;97270.97;1225027;75;2920289;-67
2023/08/31 04:46:43;;;;;;;0.65;0.65;;;;;;;14.80;100.00;97276.25;1224665;75;2930812;-65
2023/08/31 04:49:16;;;;;;;0.65;0.65;;;;;;;14.76;100.00;97275.75;1223927;75;2924303;-65
2023/08/31 04:51:49;;;;;;;1.10;0.60;;;;;;;14.84;100.00;97264.94;1224574;75;2926952;-67
2023/08/31 04:54:21;;;;;;;0.85;0.85;;;;;;;14.75;100.00;97279.78;1225183;75;2930609;-68
2023/08/31 04:56:54;;;;;;;1.00;0.90;;;;;;;14.83;100.00;97277.22;1224703;75;2920552;-69
2023/08/31 04:59:29;;;;;;;1.20;1.00;;;;;;;14.85;100.00;97283.72;1224903;75;2924229;-66
2023/08/31 05:02:02;;;;;;;1.15;1.00;;;;;;;14.95;100.00;97291.66;1224721;75;2922757;-65
2023/08/31 05:04:34;;;;;;;0.65;0.65;;;;;;;14.96;100.00;97287.63;1225048;75;2917389;-65
2023/08/31 05:07:07;;;;;;;1.20;0.90;;;;;;;15.03;100.00;97300.84;1224822;75;2922404;-66
2023/08/31 05:09:40;;;;;;;1.65;1.20;;;;;;;14.90;100.00;97301.47;1224604;75;2923858;-68
2023/08/31 05:12:12;;;;;;;1.85;1.20;;;;;;;14.97;100.00;97289.13;1224087;75;2930989;-66
2023/08/31 05:14:48;;;;;;;1.95;1.15;;;;;;;15.03;100.00;97292.56;1224246;75;2920353;-69
2023/08/31 05:17:20;;;;;;;1.40;1.25;;;;;;;14.88;100.00;97301.97;1225085;75;2922906;-67
2023/08/31 05:19:53;;;;;;;1.60;1.20;;;;;;;14.69;100.00;97309.38;1225285;75;2916343;-65
2023/08/31 05:22:26;;;;;;;1.60;1.30;;;;;;;14.92;100.00;97304.47;1225043;75;2919900;-68
2023/08/31 05:24:58;;;;;;;1.60;1.10;;;;;;;15.09;100.00;97315.34;1224900;75;2924878;-66
2023/08/31 05:27:31;;;;;;;2.55;1.50;;;;;;;14.89;100.00;97325.53;1224118;75;2927967;-66
2023/08/31 05:30:07;;;;;;;1.10;1.00;;;;;;;14.84;100.00;97329.06;1224889;75;2920178;-67
2023/08/31 05:32:40;;;;;;;1.10;1.00;;;;;;;15.06;100.00;97327.41;1224314;75;2928276;-67
2023/08/31 05:35:12;;;;;;;1.35;1.15;;;;;;;14.89;100.00;97322.78;1224924;75;2922578;-66
2023/08/31 05:37:45;;;;;;;1.50;1.10;;;;;;;14.96;100.00;97334.47;1224442;75;2923940;-65
2023/08/31 05:40:18;;;;;;;2.05;1.35;;;;;;;14.70;100.00;97330.19;1223581;75;2926888;-67
2023/08/31 05:42:50;;;;;;;1.05;0.95;;;;;;;15.08;100.00;97331.16;1224140;75;2929660;-65
2023/08/31 05:45:26;;;;;;;1.90;1.40;;;;;;;14.78;100.00;97328.34;1224114;75;2919743;-68
2023/08/31 05:47:58;;;;;;;2.35;1.75;;;;;;;15.05;100.00;97343.19;1224428;75;2926470;-66
2023/08/31 05:50:31;;;;;;;1.55;1.40;;;;;;;15.04;100.00;97336.19;1224197;75;2924162;-65
2023/08/31 05:53:03;;;;;;;1.70;1.25;;;;;;;15.17;100.00;97345.84;1223605;75;2920034;-65
2023/08/31 05:55:36;;;;;;;1.65;1.35;;;;;;;15.33;100.00;97342.19;1224756;75;2923655;-68
2023/08/31 05:58:09;;;;;;;1.65;1.35;;;;;;;15.00;100.00;97343.22;1224194;75;2921269;-65
2023/08/31 06:00:44;;;;;;;1.35;1.25;;;;;;;15.20;100.00;97344.81;1223911;75;2927054;-69
2023/08/31 06:03:16;;;;;;;2.05;1.60;;;;;;;15.16;100.00;97345.09;1221873;75;3054319;-65
2023/08/31 06:05:49;;;;;;;1.65;1.50;;;;;;;15.39;100.00;97342.88;1224169;75;2927298;-68
2023/08/31 06:08:22;;;;;;;1.50;1.40;;;;;;;15.12;100.00;97345.38;1224640;75;2929875;-69
2023/08/31 06:10:55;;;;;;;3.75;2.20;;;;;;;14.95;100.00;97344.03;1224188;75;2926257;-67
2023/08/31 06:13:27;;;;;;;4.50;2.30;;;;;;;14.81;100.00;97356.91;1224834;75;2922275;-67
2023/08/31 06:16:02;;;;;;;3.50;1.90;;;;;;;15.47;100.00;97356.88;1225442;75;2921509;-67
2023/08/31 06:18:35;;;;;;;1.80;1.45;;;;;;;15.51;100.00;97358.09;1225034;75;2918474;-64
2023/08/31 06:21:08;;;;;;;1.70;1.40;;;;;;;15.48;100.00;97361.13;1224253;75;2921590;-66
2023/08/31 06:23:40;;;;;;;2.30;1.60;;;;;;;15.53;100.00;97360.31;1224869;75;2928181;-67
2023/08/31 06:26:13;;;;;;;2.40;1.85;;;;;;;15.71;100.00;97365.19;1224289;75;2927482;-67
2023/08/31 06:28:45;;;;;;;4.75;2.70;;;;;;;15.38;100.00;97368.25;1224771;75;2927949;-67
2023/08/31 06:31:21;;;;;;;3.65;2.05;;;;;;;15.72;100.00;97368.69;1224365;75;2925853;-68
2023/08/31 06:33:53;;;;;;;3.25;2.40;;;;;;;15.32;100.00;97366.28;1224027;75;2927832;-67
2023/08/31 06:36:27;;;;;;;3.40;2.80;;;;;;;15.38;100.00;97371.00;1224867;75;2920217;-68
2023/08/31 06:38:59;;;;;;;3.10;2.40;;;;;;;15.86;100.00;97375.81;1224168;75;2921221;-68
2023/08/31 06:41:32;;;;;;;2.00;1.65;;;;;;;16.11;100.00;97373.00;1224687;75;2918673;-66
2023/08/31 06:44:05;;;;;;;4.35;2.45;;;;;;;16.06;100.00;97382.13;1223646;75;2924955;-66
2023/08/31 06:46:40;;;;;;;3.50;2.60;;;;;;;16.04;100.00;97387.41;1222447;75;2923079;-66
2023/08/31 06:49:13;;;;;;;4.65;2.60;;;;;;;16.03;100.00;97380.41;1224755;75;2925700;-69
2023/08/31 06:51:45;;;;;;;4.65;2.90;;;;;;;16.02;100.00;97376.13;1224665;75;2917314;-65
2023/08/31 06:54:18;;;;;;;3.60;2.65;;;;;;;16.54;100.00;97377.75;1223478;75;2927662;-67
2023/08/31 06:56:50;;;;;;;2.20;1.85;;;;;;;16.89;100.00;97382.31;1224473;75;2926465;-68
2023/08/31 06:59:23;;;;;;;4.20;2.45;;;;;;;16.61;100.00;97390.97;1225068;75;2919644;-68
2023/08/31 07:01:59;;;;;;;3.00;2.15;;;;;;;17.09;100.00;97397.59;1224980;75;2925604;-65
2023/08/31 07:04:32;;;;;;;4.40;2.95;;;;;;;16.26;100.00;97389.91;1224567;75;2924985;-68
2023/08/31 07:07:05;;;;;;;4.40;2.85;;;;;;;16.41;100.00;97400.53;1224788;75;2926111;-67
2023/08/31 07:09:38;;;;;;;6.45;3.45;;;;;;;16.09;100.00;97390.13;1224770;75;2921501;-68
2023/08/31 07:12:11;;;;;;;3.65;3.10;;;;;;;16.54;100.00;97386.03;1223715;75;2922988;-67
2023/08/31 07:14:43;;;;;;;3.80;3.40;;;;;;;16.48;100.00;97388.88;1224512;75;2922434;-66
2023/08/31 07:17:22;;;;;;;5.10;4.05;;;;;;;16.41;100.00;97392.25;1225039;75;2922107;-69
2023/08/31 07:19:56;;;;;;;4.90;4.20;;;;;;;16.63;100.00;97384.94;1224479;75;2923018;-66
2023/08/31 07:22:28;;;;;;;3.55;3.15;;;;;;;16.49;100.00;97395.91;1224632;75;2927254;-68
2023/08/31 07:25:01;;;;;;;3.80;3.05;;;;;;;16.82;100.00;97385.69;1224437;75;2923972;-67
2023/08/31 07:27:33;;;;;;;4.80;3.35;;;;;;;16.69;100.00;97391.09;1224766;75;2922524;-68
2023/08/31 07:30:07;;;;;;;3.90;3.50;;;;;;;16.66;100.00;97392.91;1224677;75;2925007;-68
2023/08/31 07:32:42;;;;;;;3.95;3.10;;;;;;;16.84;100.00;97394.22;1224301;75;2924443;-68
2023/08/31 07:35:15;;;;;;;3.05;2.75;;;;;;;16.92;100.00;97391.56;1225054;75;2920344;-68
2023/08/31 07:37:47;;;;;;;3.65;2.80;;;;;;;17.11;100.00;97400.59;1224986;75;2922273;-69
2023/08/31 07:40:20;;;;;;;3.15;2.40;;;;;;;17.20;100.00;97393.94;1225129;75;2922102;-65
2023/08/31 07:42:53;;;;;;;5.00;2.45;;;;;;;17.04;100.00;97401.19;1225022;75;2919793;-67
2023/08/31 07:45:26;;;;;;;2.95;2.15;;;;;;;17.34;100.00;97398.22;1225629;75;2918986;-67
2023/08/31 07:48:01;;;;;;;3.35;2.45;;;;;;;17.30;100.00;97397.03;1224718;75;2920274;-65
2023/08/31 07:50:34;;;;;;;3.90;2.60;;;;;;;17.65;100.00;97409.75;1224492;75;2919349;-69
2023/08/31 07:53:09;;;;;;;3.60;2.45;;;;;;;17.56;100.00;97415.72;1225384;75;2922660;-70
2023/08/31 07:55:42;;;;;;;2.65;1.80;;;;;;;18.02;100.00;97413.69;1224860;75;2941517;-67
2023/08/31 07:58:15;;;;;;;2.55;2.20;;;;;;;18.29;100.00;97420.69;1225601;75;2919627;-67
2023/08/31 08:00:48;;;;;;;3.30;2.35;;;;;;;18.23;100.00;97410.97;1225428;75;2924459;-69
2023/08/31 08:03:23;;;;;;;2.70;1.75;;;;;;;18.61;100.00;97407.94;1224652;75;2926179;-69
2023/08/31 08:05:55;;;;;;;3.40;2.00;;;;;;;18.48;100.00;97414.28;1224842;75;2924303;-66
2023/08/31 08:08:28;;;;;;;2.10;1.50;;;;;;;19.01;100.00;97418.97;1225543;75;2922798;-68
2023/08/31 08:11:02;;;;;;;1.95;1.50;;;;;;;19.33;100.00;97419.44;1224967;75;2920876;-67
2023/08/31 08:13:35;;;;;;;2.65;2.00;;;;;;;18.81;100.00;97423.94;1225231;75;2917528;-69
2023/08/31 08:16:08;;;;;;;2.20;1.50;;;;;;;19.05;100.00;97425.66;1225999;75;2921805;-67
2023/08/31 08:18:44;;;;;;;2.35;1.50;;;;;;;19.02;100.00;97429.50;1225481;75;2922385;-67
2023/08/31 08:21:16;;;;;;;3.15;1.85;;;;;;;19.20;99.17;97435.44;1225176;75;2916442;-70
2023/08/31 08:23:50;;;;;;;2.05;1.45;;;;;;;18.89;100.00;97435.13;1224469;75;2921506;-66
2023/08/31 08:26:23;;;;;;;2.75;1.20;;;;;;;19.17;99.06;97434.50;1225675;75;2927496;-67
2023/08/31 08:28:55;;;;;;;2.10;1.30;;;;;;;19.10;100.00;97444.22;1224960;75;2924395;-70
2023/08/31 08:31:28;;;;;;;4.55;1.80;;;;;;;18.99;100.00;97447.22;1224633;75;2923922;-67
2023/08/31 08:34:04;;;;;;;4.15;2.20;;;;;;;19.40;100.00;97450.59;1225722;75;2922596;-65
2023/08/31 08:36:37;;;;;;;2.50;1.55;;;;;;;19.33;100.00;97449.97;1225299;75;2920134;-67
2023/08/31 08:39:09;;;;;;;2.00;1.40;;;;;;;19.92;100.00;97459.97;1225576;75;2923059;-68
2023/08/31 08:41:43;;;;;;;2.65;1.50;;;;;;;19.10;100.00;97451.81;1225517;75;2924940;-70
2023/08/31 08:44:19;;;;;;;2.75;1.60;;;;;;;19.93;99.79;97453.84;1224700;75;2918374;-67
2023/08/31 08:46:53;;;;;;;1.70;1.20;;;;;;;20.39;94.90;97458.94;1225163;75;2936595;-67
2023/08/31 08:49:30;;;;;;;1.60;1.00;;;;;;;19.76;86.67;97462.59;1225465;75;2919971;-68
2023/08/31 08:52:03;;;;;;;1.90;1.15;;;;;;;20.31;90.28;97463.72;1225448;75;2918663;-69
2023/08/31 08:54:36;;;;;;;1.10;1.00;;;;;;;19.68;85.44;97463.84;1224941;75;2924071;-69
2023/08/31 08:57:09;;;;;;;7.55;2.00;;;;;;;20.00;89.93;97469.09;1223842;75;2923828;-67
2023/08/31 08:59:41;;;;;;;1.70;1.15;;;;;;;19.78;89.24;97467.63;1224983;75;2920946;-67
2023/08/31 09:02:15;;;;;;;1.85;1.20;;;;;;;20.08;90.61;97469.13;1224406;75;2925490;-66
2023/08/31 09:04:52;;;;;;;1.65;1.10;;;;;;;20.19;84.93;97472.34;1225562;75;2915573;-66
2023/08/31 09:07:26;;;;;;;1.20;1.00;;;;;;;19.97;89.75;97462.56;1225442;75;2916101;-67
2023/08/31 09:09:59;;;;;;;7.00;1.55;;;;;;;19.95;83.65;97473.50;1225191;75;2924281;-66
2023/08/31 09:12:31;;;;;;;1.85;0.90;;;;;;;20.70;78.50;97468.19;1225826;75;2920724;-70
2023/08/31 09:15:07;;;;;;;2.80;1.35;;;;;;;20.75;81.50;97466.56;1225511;75;2916432;-69
2023/08/31 09:17:47;;;;;;;0.80;0.80;;;;;;;20.65;81.30;97466.34;1226068;75;2917829;-67
2023/08/31 09:20:22;;;;;;;1.60;1.10;;;;;;;21.17;76.30;97467.06;1225362;75;2923674;-68
2023/08/31 09:22:58;;;;;;;3.45;1.10;;;;;;;20.85;77.52;97479.41;1225344;75;2921457;-67
2023/08/31 09:25:31;;;;;;;6.40;1.30;;;;;;;20.84;75.56;97477.91;1225701;75;2924893;-67
2023/08/31 09:28:05;;;;;;;2.00;0.90;;;;;;;21.42;71.44;97472.91;1225346;75;2914776;-68
2023/08/31 09:30:40;;;;;;;1.20;0.80;;;;;;;21.43;69.27;97463.25;1224868;75;2917825;-69
2023/08/31 09:33:13;;;;;;;1.70;0.95;;;;;;;22.40;69.36;97469.91;1225667;75;2917077;-68
2023/08/31 09:35:54;;;;;;;1.55;1.00;;;;;;;22.27;67.11;97475.69;1226004;75;2914858;-66
2023/08/31 09:38:27;;;;;;;3.30;1.50;;;;;;;22.42;67.54;97480.50;1225068;75;2923525;-70
2023/08/31 09:41:08;;;;;;;1.10;0.70;;;;;;;22.44;64.80;97475.09;1225283;67;2922459;-67
2023/08/31 09:43:41;;;;;;;1.50;1.00;;;;;;;22.27;66.44;97478.47;1224967;75;2916820;-68
2023/08/31 09:46:15;;;;;;;0.80;0.70;;;;;;;22.81;66.89;97475.56;1225462;75;2921883;-70
2023/08/31 09:48:48;;;;;;;1.20;0.80;;;;;;;22.74;66.23;97477.78;1224427;75;2929724;-70
2023/08/31 09:51:27;;;;;;;1.30;0.80;;;;;;;22.36;63.52;97483.47;1225361;75;2923559;-67
2023/08/31 09:54:01;;;;;;;1.85;0.70;;;;;;;23.09;63.30;97475.25;1224813;75;2925157;-68
2023/08/31 09:56:36;;;;;;;1.60;0.80;;;;;;;22.58;62.80;97473.56;1225080;75;2920997;-67
2023/08/31 09:59:09;;;;;;;2.15;0.80;;;;;;;22.53;60.63;97480.09;1225106;75;2922317;-69
2023/08/31 10:01:42;;;;;;;1.40;1.00;;;;;;;22.49;64.54;97466.53;1225234;75;2922519;-68
2023/08/31 10:04:15;;;;;;;1.20;0.90;;;;;;;23.15;64.00;97470.19;1225195;75;2923550;-69
2023/08/31 10:06:51;;;;;;;2.10;0.90;;;;;;;23.61;62.56;97472.69;1224458;75;2920449;-68
2023/08/31 10:09:24;;;;;;;0.90;0.80;;;;;;;23.55;60.89;97471.44;1225335;75;2914959;-70
2023/08/31 10:11:57;;;;;;;1.55;0.80;;;;;;;23.71;57.73;97467.19;1225412;75;2921908;-69
2023/08/31 10:14:31;;;;;;;1.70;0.80;;;;;;;23.39;59.90;97462.41;1225207;75;2923603;-69
2023/08/31 10:17:04;;;;;;;6.45;1.70;;;;;;;22.81;62.46;97473.50;1224488;75;2919068;-70
2023/08/31 10:19:37;;;;;;;2.85;0.90;;;;;;;23.23;60.14;97467.34;1225333;75;2915618;-69
2023/08/31 10:22:12;;;;;;;1.30;0.90;;;;;;;23.93;58.71;97470.41;1224942;75;2922294;-70
2023/08/31 10:25:01;;;;;;;1.05;0.95;;;;;;;24.56;56.39;97477.69;1225582;75;2917661;-68
2023/08/31 10:27:41;;;;;;;1.95;0.70;;;;;;;24.41;54.89;97473.69;1225591;75;2918502;-68
2023/08/31 10:30:29;;;;;;;1.20;0.80;;;;;;;23.80;54.78;97482.63;1225177;75;2924008;-69
2023/08/31 10:33:26;;;;;;;1.00;0.70;;;;;;;24.24;54.47;97482.81;1225113;75;2925966;-69
2023/08/31 10:36:00;;;;;;;0.70;0.50;;;;;;;23.85;52.03;97483.72;1224933;75;2922635;-69
2023/08/31 10:38:38;;;;;;;0.70;0.70;;;;;;;24.30;54.99;97485.38;1225165;75;2933723;-68
2023/08/31 10:41:25;;;;;;;0.95;0.70;;;;;;;24.59;53.54;97484.91;1225528;75;2924205;-69
2023/08/31 10:43:59;;;;;;;1.25;0.95;;;;;;;25.29;53.14;97480.69;1224603;75;2942911;-67
2023/08/31 10:46:35;;;;;;;1.00;0.55;;;;;;;24.60;52.20;97478.72;1225808;75;2920846;-69
2023/08/31 10:49:18;;;;;;;1.00;0.70;;;;;;;24.32;53.51;97482.75;1224657;75;2922751;-67
2023/08/31 10:51:53;;;;;;;1.20;0.60;;;;;;;25.33;52.54;97465.50;1225481;75;2919540;-68
2023/08/31 10:54:30;;;;;;;2.10;0.80;;;;;;;24.89;54.02;97464.19;1225143;75;2922339;-68
2023/08/31 10:57:12;;;;;;;1.15;0.80;;;;;;;24.86;51.03;97460.50;1226489;75;2915450;-71
2023/08/31 10:59:53;;;;;;;0.70;0.70;;;;;;;24.48;52.93;97460.94;1225643;75;2928267;-71
2023/08/31 11:02:34;;;;;;;0.80;0.70;;;;;;;24.72;51.57;97458.63;1225320;75;2921651;-68
2023/08/31 11:05:13;;;;;;;1.20;0.90;;;;;;;25.18;50.10;97461.59;1224749;75;2925822;-67
2023/08/31 11:07:47;;;;;;;2.05;0.85;;;;;;;25.57;48.54;97466.66;1224974;75;2926838;-71
2023/08/31 11:10:26;;;;;;;1.65;1.05;;;;;;;24.88;49.94;97457.13;1225465;75;2922867;-68
2023/08/31 11:12:59;;;;;;;2.55;1.10;;;;;;;24.99;51.32;97458.66;1224863;75;2916897;-66
2023/08/31 11:15:32;;;;;;;2.35;0.80;;;;;;;24.98;50.90;97452.31;1224847;75;2916555;-70
2023/08/31 11:18:05;;;;;;;0.65;0.65;;;;;;;25.16;52.13;97450.22;1224883;75;2914077;-68
2023/08/31 11:20:38;;;;;;;0.80;0.70;;;;;;;26.03;50.51;97444.25;1225648;75;2924534;-70
2023/08/31 11:23:11;;;;;;;0.85;0.80;;;;;;;26.38;48.66;97434.81;1224654;75;2920016;-69
2023/08/31 11:25:47;;;;;;;0.90;0.80;;;;;;;25.98;49.46;97447.31;1225800;75;2920208;-69
2023/08/31 11:28:19;;;;;;;1.25;0.85;;;;;;;26.04;48.80;97444.97;1224859;75;2913586;-70
2023/08/31 11:30:53;;;;;;;1.60;0.80;;;;;;;25.83;48.94;97442.69;1225256;75;2928156;-69
2023/08/31 11:33:25;;;;;;;0.90;0.80;;;;;;;25.98;48.87;97439.66;1226003;75;2917122;-68
2023/08/31 11:35:58;;;;;;;0.90;0.65;;;;;;;26.10;47.46;97437.03;1224768;75;2922807;-68
2023/08/31 11:38:32;;;;;;;1.15;0.85;;;;;;;25.19;49.71;97439.94;1223502;75;3009355;-69
2023/08/31 11:41:07;;;;;;;1.45;0.90;;;;;;;26.01;48.77;97437.75;1226025;75;2916217;-69
2023/08/31 11:43:40;;;;;;;1.20;0.70;;;;;;;25.73;48.06;97442.66;1225530;75;2927239;-69